Latest Weather Observations for Jandakot

IDW60901

Issued at 6:41 am WST Thursday 26 May 2016 (issued every 10 minutes, with the page automatically refreshed every 10 minutes)

About weather observations | Map of Perth area stations | Latest observations for Perth area | Other Formats
Station Details ID: 009172 Name: JANDAKOT AERO Lat: -32.10 Lon: 115.88 Height: 30.0 m
Data from the previous 72 hours. | See also: Recent months at Jandakot
Date/Time
WST
Tmp

°C
App
Tmp
°C
Dew
Point
°C
Rel
Hum
%
Delta-T

°C
Wind Press
QNH
hPa
Press
MSL
hPa
Rain
since
9 am
mm
Dir
 
Spd
km/h
Gust
km/h
Spd
kts
Gust
kts
26/06:30am 15.7 13.3 10.2 70 2.9 WSW 13 17 7 9 1015.0 1015.0 -
26/06:00am 15.9 12.8 10.2 69 3.0 WSW 17 26 9 14 1014.9 1014.9 -
26/05:30am 15.8 12.7 10.3 70 2.9 W 17 22 9 12 1014.3 1014.3 -
26/05:00am 16.2 11.6 9.7 65 3.4 W 24 32 13 17 1014.6 1014.6 -
26/04:30am 15.8 12.7 10.3 70 2.9 WSW 17 22 9 12 1014.2 1014.2 -
26/04:00am 15.5 12.3 11.2 75 2.3 W 19 26 10 14 1013.9 1013.9 -
26/03:30am 15.7 13.0 11.8 77 2.1 WSW 17 24 9 13 1013.8 1013.8 -
26/03:00am 15.7 12.3 11.2 74 2.4 W 20 28 11 15 1013.5 1013.5 4.0
26/02:30am 13.1 13.2 12.7 97 0.2 N 4 9 2 5 1013.4 1013.4 -
26/02:00am 13.1 11.9 12.9 99 0.1 NNE 11 13 6 7 1013.3 1013.3 -
26/01:40am 13.3 13.1 12.9 97 0.2 N 6 9 3 5 1013.1 1013.1 -
26/01:30am 13.0 12.7 12.6 97 0.2 NNE 6 11 3 6 1013.1 1013.1 -
26/01:22am 13.0 12.1 12.6 97 0.2 NNE 9 11 5 6 1013.1 1013.1 -
26/01:00am 13.1 11.9 12.7 97 0.2 NNE 11 15 6 8 1012.9 1012.9 -
26/12:30am 13.1 12.6 12.7 97 0.2 NNE 7 9 4 5 1013.2 1013.2 -
26/12:00am 13.2 10.8 12.8 97 0.2 N 17 20 9 11 1013.1 1013.1 -
 
Date/Time
WST
Tmp

°C
App
Tmp
°C
Dew
Point
°C
Rel
Hum
%
Delta-T

°C
Wind Press
QNH
hPa
Press
MSL
hPa
Rain
since
9 am
mm
Dir
 
Spd
km/h
Gust
km/h
Spd
kts
Gust
kts
25/11:30pm 13.0 11.0 12.6 97 0.2 NNE 15 20 8 11 1013.3 1013.3 -
25/11:26pm 13.0 10.9 12.4 96 0.3 NNE 15 20 8 11 1013.4 1013.4 -
25/11:03pm 13.0 12.0 12.4 96 0.3 N 9 11 5 6 1013.6 1013.6 -
25/11:00pm 12.9 11.9 12.3 96 0.3 NNE 9 11 5 6 1013.6 1013.6 -
25/10:30pm 12.4 10.9 12.0 97 0.2 NNE 11 13 6 7 1013.5 1013.5 -
25/10:00pm 11.8 10.5 11.2 96 0.3 NNE 9 11 5 6 1013.1 1013.1 -
25/09:30pm 12.3 10.7 11.4 94 0.5 NNE 11 13 6 7 1013.4 1013.4 -
25/09:00pm 13.5 11.7 12.0 91 0.8 NNW 13 17 7 9 1013.4 1013.4 0.2
25/08:30pm 14.2 11.2 12.6 90 0.9 NW 20 28 11 15 1013.6 1013.6 -
25/08:00pm 13.5 11.7 11.0 85 1.3 N 11 13 6 7 1013.5 1013.5 -
25/07:30pm 14.0 12.3 11.2 83 1.5 N 11 13 6 7 1013.5 1013.5 -
25/07:00pm 14.6 13.0 11.4 81 1.7 N 11 15 6 8 1013.3 1013.3 -
25/06:30pm 14.2 12.7 10.4 78 2.0 NW 9 11 5 6 1013.2 1013.2 -
25/06:00pm 14.6 12.6 10.2 75 2.3 WNW 11 13 6 7 1012.7 1012.6 -
25/05:30pm 15.8 13.1 10.5 71 2.8 WSW 15 20 8 11 1012.4 1012.3 -
25/05:00pm 16.3 13.2 10.2 67 3.2 W 17 20 9 11 1012.4 1012.3 -
25/04:30pm 17.4 15.1 10.5 64 3.7 WNW 13 19 7 10 1012.2 1012.1 -
25/04:00pm 16.4 13.9 11.2 71 2.8 NW 15 19 8 10 1012.0 1011.9 -
25/03:30pm 16.1 13.1 11.9 76 2.3 WNW 19 28 10 15 1011.9 1011.8 -
25/03:00pm 17.3 13.2 8.6 56 4.5 WNW 20 28 11 15 1011.7 1011.6 -
25/02:30pm 17.3 13.2 8.8 57 4.4 WNW 20 30 11 16 1011.7 1011.6 -
25/02:00pm 17.4 12.4 8.0 54 4.8 WNW 24 32 13 17 1011.7 1011.6 -
25/01:30pm 18.5 14.5 9.2 54 4.9 WNW 20 32 11 17 1011.6 1011.5 -
25/01:00pm 18.0 14.3 10.1 60 4.2 W 20 28 11 15 1011.6 1011.5 -
25/12:30pm 18.1 14.4 9.3 56 4.6 WNW 19 28 10 15 1011.7 1011.6 -
25/12:00pm 17.9 14.3 10.0 60 4.2 W 19 28 10 15 1012.0 1011.9 -
25/11:30am 17.9 14.2 10.2 60 4.1 WSW 20 32 11 17 1012.1 1012.0 -
25/10:00am 16.0 14.5 11.8 76 2.3 NNE 11 15 6 8 1012.5 1012.4 0.0
25/09:30am 15.1 13.3 12.0 82 1.7 NNE 13 15 7 8 1012.6 1012.5 0.0
25/09:00am 13.0 11.0 11.5 91 0.8 NNE 13 15 7 8 1012.4 1012.3 0.8
25/08:30am 12.4 10.4 11.5 94 0.5 NNE 13 17 7 9 1012.4 1012.3 0.8
25/08:00am 11.0 8.6 10.2 95 0.4 NNE 13 19 7 10 1012.3 1012.2 0.8
25/07:30am 10.5 8.4 9.9 96 0.3 NNE 11 13 6 7 1012.0 1011.9 0.8
25/07:00am 9.8 7.9 9.2 96 0.3 NE 9 11 5 6 1011.7 1011.6 0.8
25/06:30am 10.7 9.0 9.9 95 0.4 NE 9 11 5 6 1011.5 1011.4 0.8
25/06:00am 11.4 10.0 10.8 96 0.3 NE 9 9 5 5 1011.3 1011.2 0.8
25/05:30am 12.0 11.1 10.7 92 0.7 W 6 7 3 4 1011.1 1011.0 0.8
25/05:00am 11.8 10.0 11.0 95 0.4 NNE 11 13 6 7 1010.9 1010.8 0.8
25/04:30am 12.1 10.4 11.1 94 0.5 N 11 13 6 7 1011.1 1011.0 0.8
25/04:00am 11.9 10.2 11.3 96 0.3 NNE 11 15 6 8 1011.1 1011.0 0.8
25/03:30am 12.2 11.3 11.4 95 0.4 N 7 11 4 6 1011.0 1010.9 0.8
25/03:00am 12.2 11.4 11.6 96 0.3 N 7 13 4 7 1011.0 1010.9 0.8
25/02:30am 12.4 10.8 11.6 95 0.4 NNE 11 15 6 8 1010.9 1010.8 0.8
25/02:00am 12.3 11.0 11.4 94 0.5 NE 9 13 5 7 1010.8 1010.7 0.8
25/01:30am 13.0 12.0 11.1 88 1.0 N 7 11 4 6 1010.9 1010.8 0.8
25/01:00am 12.6 10.7 11.9 95 0.4 N 13 17 7 9 1010.9 1010.8 0.8
25/12:30am 12.3 11.1 11.7 96 0.3 N 9 15 5 8 1011.0 1010.9 0.8
25/12:00am 11.5 10.5 11.1 97 0.2 NNW 7 11 4 6 1011.4 1011.3 0.6
 
Date/Time
WST
Tmp

°C
App
Tmp
°C
Dew
Point
°C
Rel
Hum
%
Delta-T

°C
Wind Press
QNH
hPa
Press
MSL
hPa
Rain
since
9 am
mm
Dir
 
Spd
km/h
Gust
km/h
Spd
kts
Gust
kts
24/11:30pm 10.6 9.4 10.2 97 0.2 NE 7 9 4 5 1010.9 1010.8 0.6
24/11:00pm 11.0 10.5 10.6 97 0.2 ESE 4 9 2 5 1011.3 1011.2 0.6
24/10:30pm 11.0 10.8 10.4 96 0.3 N 2 7 1 4 1011.3 1011.2 0.4
24/10:00pm 11.1 10.2 10.7 97 0.2 NE 6 7 3 4 1011.3 1011.2 0.4
24/09:30pm 10.9 10.0 10.5 97 0.2 ENE 6 7 3 4 1011.3 1011.2 0.4
24/09:00pm 10.7 9.5 10.3 97 0.2 NE 7 9 4 5 1011.3 1011.2 0.4
24/08:30pm 11.4 10.5 10.6 95 0.4 NE 6 7 3 4 1011.3 1011.2 0.4
24/08:00pm 12.1 11.3 11.0 93 0.6 SSE 6 9 3 5 1011.1 1011.0 0.4
24/07:30pm 13.1 11.9 11.6 91 0.8 S 9 11 5 6 1011.0 1010.9 0.4
24/07:00pm 13.3 11.3 11.6 89 0.9 SE 13 20 7 11 1010.7 1010.6 0.4
24/06:30pm 12.2 11.4 11.6 96 0.3 ENE 7 9 4 5 1010.6 1010.5 0.4
24/06:00pm 12.5 11.7 11.6 94 0.5 N 7 9 4 5 1010.1 1010.0 0.4
24/05:30pm 13.8 14.5 12.1 89 0.9 CALM 0 6 0 3 1009.7 1009.6 0.4
24/05:00pm 14.2 11.4 12.6 90 0.9 SW 19 32 10 17 1009.8 1009.7 0.4
24/04:30pm 16.1 13.9 9.4 64 3.5 W 11 15 6 8 1009.1 1009.0 0.0
24/04:00pm 16.5 12.3 8.3 58 4.2 WSW 20 26 11 14 1009.0 1008.9 0.0
24/03:30pm 16.4 11.2 8.8 60 3.9 WSW 26 35 14 19 1008.7 1008.6 0.0
24/03:00pm 17.9 13.2 9.1 56 4.6 WSW 24 39 13 21 1008.3 1008.2 0.0
24/02:30pm 16.9 13.0 9.4 61 3.9 WSW 20 28 11 15 1008.1 1008.0 0.0
24/02:00pm 17.5 13.4 10.0 61 4.0 SW 22 30 12 16 1007.8 1007.7 0.0
24/01:30pm 17.3 13.4 9.5 60 4.1 W 20 32 11 17 1007.7 1007.6 0.0
24/01:00pm 17.6 12.1 9.0 57 4.5 SW 28 39 15 21 1007.5 1007.4 0.0
24/12:32pm 18.7 13.2 9.2 54 5.0 WSW 28 46 15 25 1007.3 1007.2 0.0
24/12:30pm 19.0 13.4 7.2 46 6.0 WSW 26 39 14 21 1007.4 1007.3 0.0
24/12:00pm 17.8 14.4 9.0 56 4.6 WSW 17 24 9 13 1007.8 1007.7 0.0
24/11:30am 19.0 13.1 5.9 42 6.5 WSW 26 37 14 20 1007.9 1007.8 0.0
24/11:00am 18.6 12.0 6.1 44 6.2 W 30 41 16 22 1007.9 1007.8 0.0
24/10:30am 17.9 11.6 7.2 49 5.4 WSW 30 43 16 23 1007.7 1007.6 0.0
24/10:00am 17.5 11.0 8.1 54 4.8 WSW 32 46 17 25 1007.6 1007.5 0.0
24/09:40am 17.7 12.5 10.2 61 4.0 WSW 28 48 15 26 1007.4 1007.3 0.0
24/09:30am 17.2 13.9 11.5 69 3.1 SW 20 32 11 17 1007.4 1007.3 0.0
24/09:00am 16.4 13.6 12.6 78 2.1 SW 19 28 10 15 1007.2 1007.1 38.4
24/08:30am 16.9 14.0 12.8 77 2.3 SW 20 28 11 15 1006.8 1006.7 38.4
24/08:00am 15.8 13.2 13.3 85 1.4 WSW 19 32 10 17 1006.3 1006.2 38.4
24/07:44am 15.9 12.6 12.8 82 1.7 WSW 22 37 12 20 1006.0 1005.9 38.2
24/07:30am 15.6 11.1 13.8 89 1.0 SW 30 41 16 22 1005.7 1005.6 38.2
24/07:13am 16.1 12.1 14.2 88 1.1 SW 28 52 15 28 1005.2 1005.1 38.2
24/07:00am 16.1 13.2 15.2 94 0.5 SW 24 35 13 19 1004.8 1004.7 38.0
24/06:30am 16.4 13.0 15.7 96 0.4 SW 28 43 15 23 1004.3 1004.2 36.6
24/06:11am 17.0 14.4 15.8 93 0.7 WSW 24 35 13 19 1003.7 1003.6 35.8
24/06:07am 17.1 14.5 15.9 93 0.7 WSW 24 35 13 19 1003.5 1003.4 35.6
24/06:00am 17.1 14.6 16.1 94 0.6 WSW 24 35 13 19 1003.4 1003.3 35.6
24/05:42am 17.1 13.9 16.3 95 0.5 SW 28 39 15 21 1002.9 1002.8 35.2
24/05:30am 17.2 13.3 16.5 96 0.4 SW 32 46 17 25 1002.2 1002.1 34.8
24/05:18am 17.6 12.5 16.9 96 0.4 WSW 39 56 21 30 1002.5 1002.4 33.4
24/05:13am 17.9 12.6 17.2 96 0.4 W 41 56 22 30 1001.8 1001.7 33.2
24/05:06am 18.9 14.1 18.4 97 0.3 NW 41 57 22 31 1001.4 1001.3 31.2
24/05:00am 18.8 14.3 18.3 97 0.3 NW 39 57 21 31 1000.6 1000.5 28.2
24/04:36am 18.5 13.1 17.9 96 0.4 NNW 43 61 23 33 1000.8 1000.7 25.8
24/04:30am 18.5 12.8 17.7 95 0.5 NNW 44 57 24 31 1000.8 1000.7 25.6
24/04:17am 18.2 13.3 17.4 95 0.5 NNW 39 56 21 30 1001.2 1001.1 25.0
24/04:07am 18.0 12.7 17.2 95 0.5 NNW 41 59 22 32 1001.5 1001.4 24.8
24/04:00am 17.7 13.9 17.2 97 0.3 NNW 33 59 18 32 1001.3 1001.2 24.8
24/03:59am 17.7 13.9 17.2 97 0.3 NNW 33 59 18 32 1001.4 1001.3 24.8
24/03:30am 16.3 13.0 16.0 98 0.2 NNW 28 37 15 20 1002.3 1002.2 20.6
24/03:00am 16.1 13.1 15.8 98 0.2 NNW 26 35 14 19 1002.8 1002.7 15.8
24/02:31am 16.0 12.8 15.3 96 0.4 NNW 26 35 14 19 1003.3 1003.2 9.0
24/02:30am 16.0 12.4 15.3 96 0.4 NNW 28 35 15 19 1003.3 1003.2 8.8
24/02:23am 15.9 12.6 15.0 94 0.5 N 26 33 14 18 1003.4 1003.3 7.8
24/02:00am 15.8 13.2 14.9 94 0.5 N 22 32 12 17 1003.6 1003.5 6.6
24/01:30am 16.1 13.2 14.0 87 1.2 N 22 44 12 24 1004.6 1004.5 4.8
24/01:00am 16.1 13.2 14.0 87 1.2 N 22 39 12 21 1005.2 1005.1 3.4
24/12:30am 16.3 14.0 12.9 80 1.9 N 17 26 9 14 1005.8 1005.7 0.2
24/12:00am 16.6 12.4 11.2 70 2.9 NNE 24 30 13 16 1005.5 1005.4 0.0
 
Date/Time
WST
Tmp

°C
App
Tmp
°C
Dew
Point
°C
Rel
Hum
%
Delta-T

°C
Wind Press
QNH
hPa
Press
MSL
hPa
Rain
since
9 am
mm
Dir
 
Spd
km/h
Gust
km/h
Spd
kts
Gust
kts
23/11:30pm 16.3 12.7 10.5 68 3.1 N 20 24 11 13 1006.3 1006.2 0.0
23/11:00pm 16.5 12.3 9.6 63 3.6 N 22 28 12 15 1006.9 1006.8 0.0
23/10:30pm 16.6 11.9 9.3 62 3.8 N 24 32 13 17 1007.1 1007.0 0.0
23/10:00pm 16.9 12.5 9.0 59 4.1 N 22 30 12 16 1007.8 1007.7 0.0
23/09:30pm 17.0 12.2 8.7 58 4.3 N 24 32 13 17 1007.8 1007.7 0.0
23/09:00pm 16.4 12.5 8.8 60 3.9 NNE 19 22 10 12 1008.4 1008.3 0.0
23/08:30pm 17.1 13.2 8.8 58 4.3 NNE 19 22 10 12 1008.9 1008.8 0.0
23/08:00pm 17.2 13.2 8.4 56 4.5 N 19 24 10 13 1009.7 1009.6 0.0
23/07:30pm 17.1 13.5 8.3 56 4.5 N 17 20 9 11 1010.4 1010.3 0.0
23/07:00pm 17.3 13.6 8.1 54 4.7 NNW 17 22 9 12 1010.2 1010.1 0.0
23/06:30pm 17.6 13.5 7.8 52 5.0 N 19 22 10 12 1010.4 1010.3 0.0
23/06:00pm 18.1 13.7 7.4 49 5.4 NNE 20 26 11 14 1010.5 1010.4 0.0
23/05:30pm 18.5 14.6 7.2 47 5.7 N 17 24 9 13 1011.1 1011.0 0.0
23/05:00pm 18.5 13.6 6.7 46 5.9 N 22 30 12 16 1010.7 1010.6 0.0
23/04:30pm 19.0 13.1 5.8 42 6.5 N 26 37 14 20 1011.0 1010.9 0.0
23/04:00pm 19.2 13.5 6.6 44 6.3 N 26 39 14 21 1011.6 1011.5 0.0
23/03:30pm 20.1 13.6 6.4 41 6.9 N 30 43 16 23 1011.6 1011.5 0.0
23/03:00pm 20.0 13.3 7.5 44 6.4 N 32 41 17 22 1012.3 1012.2 0.0
23/02:30pm 20.1 13.2 6.6 41 6.8 N 32 46 17 25 1013.2 1013.2 0.0
23/02:00pm 19.8 12.9 6.4 41 6.7 N 32 43 17 23 1013.8 1013.8 0.0
23/01:30pm 19.9 14.4 7.4 44 6.4 N 26 41 14 22 1014.6 1014.6 0.0
23/01:00pm 20.1 14.1 8.6 47 6.0 N 30 41 16 22 1015.1 1015.1 0.0
23/12:30pm 19.5 13.4 8.1 47 5.9 NNW 30 41 16 22 1016.2 1016.2 0.0
23/12:00pm 19.1 13.4 8.5 50 5.5 N 28 44 15 24 1016.9 1016.9 0.0
23/11:30am 18.7 13.3 9.4 54 4.9 N 28 37 15 20 1017.9 1017.9 0.0
23/11:00am 18.3 14.8 10.9 62 4.0 N 20 30 11 16 1019.0 1019.0 0.0
23/10:30am 16.8 12.0 10.2 65 3.5 N 26 37 14 20 1019.5 1019.5 0.0
23/10:00am 15.5 11.3 9.9 69 2.9 N 22 32 12 17 1019.8 1019.8 0.0
23/09:30am 14.2 10.5 10.2 77 2.1 N 20 28 11 15 1019.8 1019.8 0.0
23/09:00am 13.5 10.1 10.4 81 1.6 N 19 22 10 12 1020.1 1020.1 6.2
23/08:30am 12.8 9.4 10.7 87 1.1 N 19 20 10 11 1019.9 1019.9 6.2
23/08:00am 12.4 9.8 10.7 89 0.9 N 15 19 8 10 1020.3 1020.3 6.2
23/07:30am 11.8 9.2 10.6 92 0.6 NNE 15 17 8 9 1019.8 1019.8 6.2
23/07:00am 11.8 8.7 10.4 91 0.7 NNE 17 20 9 11 1019.9 1019.9 6.2

Latest Capital City Observations: Canberra | Sydney | Melbourne | Brisbane | Adelaide | Perth | Hobart | Darwin

Other Formats:

Comma delimited format used in spreadsheet applications
http://www.bom.gov.au/fwo/IDW60901/IDW60901.94609.axf

JavaScript Object Notation format (JSON) in row-major order
http://www.bom.gov.au/fwo/IDW60901/IDW60901.94609.json